Reynosa, TAM, Mexico
Current Conditions -  °F | °C
As of 6:40 PM on Sunday 23 Nov 2014 (Local Time) from MMRX Reporting Station
Few Clouds Few Clouds  
Wind Chill: 68°   Ceiling: Unl
Heat Index: 68°   Visibility: 10mi
Dew Point: 54°   Wind: 7mph
Humidity: 60%   Direction: 150°SSE
Pressure: 29.66"   Gusts: NA
Location:  26.08°N, 98.28°W
Report Text: MMRX 240040Z 15006KT 10SM FEW240 20/12 A2966 RMK 8/002 HZY FU
Loading
Personal Weather Stations






























Interactive Weather Map New forecast layout! Learn more

10-Day Weather Forecast

Advertisements
Track Severe Weather on mobile